createdAt,value
2018-09-14T00:01:01.852Z,100497.36
2018-09-14T00:03:30.771Z,100494.61
2018-09-14T00:05:59.566Z,100491.40
2018-09-14T00:08:28.312Z,100497.69
2018-09-14T00:10:56.487Z,100493.78
2018-09-14T00:13:24.825Z,100491.14
2018-09-14T00:15:53.038Z,100486.55
2018-09-14T00:18:21.555Z,100486.17
2018-09-14T00:20:49.692Z,100483.50
2018-09-14T00:23:18.455Z,100481.05
2018-09-14T00:25:46.520Z,100483.45
2018-09-14T00:28:14.833Z,100479.23
2018-09-14T00:30:43.012Z,100485.03
2018-09-14T00:33:13.858Z,100480.64
2018-09-14T00:35:42.315Z,100471.10
2018-09-14T00:38:11.914Z,100478.89
2018-09-14T00:40:40.189Z,100479.72
2018-09-14T00:43:08.449Z,100476.25
2018-09-14T00:45:36.768Z,100480.55
2018-09-14T00:48:05.034Z,100477.31
2018-09-14T00:50:33.304Z,100472.03
2018-09-14T00:53:01.706Z,100480.73
2018-09-14T00:55:30.561Z,100473.92
2018-09-14T00:57:58.682Z,100478.80
2018-09-14T01:00:27.818Z,100474.47
2018-09-14T01:02:56.075Z,100482.82
2018-09-14T01:05:24.146Z,100483.28
2018-09-14T01:07:53.077Z,100480.98
2018-09-14T01:10:21.256Z,100480.86
2018-09-14T01:12:49.387Z,100474.66
2018-09-14T01:15:17.555Z,100475.33
2018-09-14T01:17:46.038Z,100484.97
2018-09-14T01:20:14.176Z,100477.54
2018-09-14T01:22:42.420Z,100482.67
2018-09-14T01:25:11.154Z,100469.75
2018-09-14T01:27:39.246Z,100480.34
2018-09-14T01:30:07.487Z,100476.63
2018-09-14T01:32:36.909Z,100476.31
2018-09-14T01:35:09.175Z,100468.95
2018-09-14T01:37:38.039Z,100475.06
2018-09-14T01:40:06.207Z,100474.63
2018-09-14T01:42:34.379Z,100486.83
2018-09-14T01:45:02.475Z,100477.88
2018-09-14T01:47:30.787Z,100485.29
2018-09-14T01:49:59.368Z,100484.55
2018-09-14T01:52:27.515Z,100487.72
2018-09-14T01:54:55.718Z,100481.23
2018-09-14T01:57:23.882Z,100474.20
2018-09-14T01:59:52.108Z,100473.58
2018-09-14T02:02:20.474Z,100479.88
2018-09-14T02:04:48.626Z,100473.95
2018-09-14T02:07:16.898Z,100474.87
2018-09-14T02:09:45.099Z,100478.91
2018-09-14T02:12:14.804Z,100482.59
2018-09-14T02:14:44.171Z,100476.73
2018-09-14T02:17:12.513Z,100484.86
2018-09-14T02:19:40.964Z,100480.04
2018-09-14T02:22:10.504Z,100479.91
2018-09-14T02:24:38.875Z,100479.51
2018-09-14T02:27:08.424Z,100475.18
2018-09-14T02:29:36.548Z,100476.87
2018-09-14T02:32:04.946Z,100471.37
2018-09-14T02:34:33.273Z,100472.90
2018-09-14T02:37:02.855Z,100472.94
2018-09-14T02:39:31.673Z,100480.80
2018-09-14T02:42:00.016Z,100477.00
2018-09-14T02:44:28.142Z,100478.19
2018-09-14T02:46:56.671Z,100485.41
2018-09-14T02:49:25.790Z,100480.67
2018-09-14T02:51:53.909Z,100480.27
2018-09-14T02:54:42.114Z,100482.42
2018-09-14T02:57:10.270Z,100482.16
2018-09-14T02:59:38.425Z,100484.14
2018-09-14T03:02:06.975Z,100483.68
2018-09-14T03:04:35.209Z,100481.04
2018-09-14T03:07:03.717Z,100478.23
2018-09-14T03:09:32.619Z,100489.50
2018-09-14T03:12:00.890Z,100483.71
2018-09-14T03:14:28.996Z,100483.40
2018-09-14T03:16:57.135Z,100487.11
2018-09-14T03:19:25.408Z,100491.20
2018-09-14T03:21:53.590Z,100488.95
2018-09-14T03:24:22.067Z,100491.27
2018-09-14T03:26:50.323Z,100487.44
2018-09-14T03:29:18.453Z,100490.91
2018-09-14T03:31:46.785Z,100489.91
2018-09-14T03:34:15.972Z,100493.95
2018-09-14T03:36:44.463Z,100498.03
2018-09-14T03:39:12.658Z,100493.78
2018-09-14T03:41:41.272Z,100488.05
2018-09-14T03:44:09.344Z,100487.23
2018-09-14T03:46:37.679Z,100488.37
2018-09-14T03:49:09.467Z,100494.78
2018-09-14T03:51:40.157Z,100491.92
2018-09-14T03:54:09.711Z,100485.84
2018-09-14T03:56:37.893Z,100487.87
2018-09-14T03:59:07.366Z,100485.44
2018-09-14T04:01:36.247Z,100492.81
2018-09-14T04:04:06.090Z,100486.30
2018-09-14T04:06:34.899Z,100488.77
2018-09-14T04:09:05.691Z,100492.42
2018-09-14T04:11:34.043Z,100490.59
2018-09-14T04:14:02.716Z,100495.94
2018-09-14T04:16:32.505Z,100486.19
2018-09-14T04:19:02.095Z,100497.72
2018-09-14T04:21:33.347Z,100480.73
2018-09-14T04:24:03.070Z,100491.53
2018-09-14T04:26:32.374Z,100494.64
2018-09-14T04:29:01.227Z,100497.55
2018-09-14T04:31:29.846Z,100496.39
2018-09-14T04:33:59.733Z,100497.91
2018-09-14T04:36:29.905Z,100504.05
2018-09-14T04:38:59.097Z,100500.54
2018-09-14T04:41:27.875Z,100511.22
2018-09-14T04:43:56.866Z,100512.08
2018-09-14T04:46:25.050Z,100514.70
2018-09-14T04:48:54.220Z,100510.64
2018-09-14T04:51:22.590Z,100508.66
2018-09-14T04:53:51.983Z,100515.41
2018-09-14T04:56:21.128Z,100509.13
2018-09-14T04:58:49.401Z,100515.14
2018-09-14T05:01:17.892Z,100516.62
2018-09-14T05:03:47.406Z,100525.14
2018-09-14T05:06:20.583Z,100524.28
2018-09-14T05:08:50.248Z,100524.78
2018-09-14T05:11:18.435Z,100527.61
2018-09-14T05:13:46.909Z,100520.81
2018-09-14T05:16:15.075Z,100526.86
2018-09-14T05:18:43.551Z,100524.36
2018-09-14T05:21:11.834Z,100526.90
2018-09-14T05:23:40.622Z,100528.37
2018-09-14T05:26:09.269Z,100525.97
2018-09-14T05:28:37.559Z,100527.13
2018-09-14T05:31:07.238Z,100529.91
2018-09-14T05:33:35.344Z,100532.99
2018-09-14T05:36:07.011Z,100532.05
2018-09-14T05:38:35.633Z,100533.19
2018-09-14T05:41:05.576Z,100537.16
2018-09-14T05:43:33.642Z,100545.09
2018-09-14T05:46:03.548Z,100539.44
2018-09-14T05:48:35.186Z,100546.34
2018-09-14T05:51:03.559Z,100547.83
2018-09-14T05:53:31.939Z,100545.45
2018-09-14T05:56:00.685Z,100550.20
2018-09-14T05:58:29.981Z,100548.92
2018-09-14T06:00:58.129Z,100544.98
2018-09-14T06:03:26.771Z,100557.82
2018-09-14T06:05:56.142Z,100550.62
2018-09-14T06:08:24.450Z,100551.22
2018-09-14T06:10:55.095Z,100550.58
2018-09-14T06:13:25.477Z,100552.34
2018-09-14T06:15:53.574Z,100557.64
2018-09-14T06:18:22.089Z,100560.83
2018-09-14T06:20:51.723Z,100560.97
2018-09-14T06:23:21.270Z,100562.90
2018-09-14T06:25:50.742Z,100568.88
2018-09-14T06:28:20.221Z,100576.30
2018-09-14T06:30:48.599Z,100576.34
2018-09-14T06:33:16.731Z,100579.68
2018-09-14T06:35:44.846Z,100574.23
2018-09-14T06:38:13.511Z,100576.45
2018-09-14T06:40:42.345Z,100572.15
2018-09-14T06:43:10.418Z,100578.11
2018-09-14T06:45:40.833Z,100576.98
2018-09-14T06:48:09.110Z,100585.87
2018-09-14T06:50:39.414Z,100585.70
2018-09-14T06:53:07.880Z,100579.61
2018-09-14T06:55:37.042Z,100572.16
2018-09-14T06:58:06.281Z,100569.47
2018-09-14T07:00:34.958Z,100568.39
2018-09-14T07:03:04.028Z,100567.20
2018-09-14T07:05:32.454Z,100573.27
2018-09-14T07:08:02.674Z,100569.82
2018-09-14T07:10:31.437Z,100575.98
2018-09-14T07:12:59.591Z,100577.30
2018-09-14T07:15:29.765Z,100581.97
2018-09-14T07:17:58.194Z,100584.91
2018-09-14T07:20:27.734Z,100583.86
2018-09-14T07:22:58.721Z,100585.38
2018-09-14T07:25:26.819Z,100589.77
2018-09-14T07:27:56.067Z,100580.97
2018-09-14T07:30:24.671Z,100589.64
2018-09-14T07:32:52.831Z,100591.49
2018-09-14T07:35:20.998Z,100597.55
2018-09-14T07:37:50.514Z,100593.48
2018-09-14T07:40:18.839Z,100593.20
2018-09-14T07:42:48.858Z,100603.48
2018-09-14T07:45:17.570Z,100596.62
2018-09-14T07:47:47.125Z,100605.60
2018-09-14T07:50:15.782Z,100602.30
2018-09-14T07:52:45.703Z,100597.59
2018-09-14T07:55:13.760Z,100608.59
2018-09-14T07:57:42.137Z,100606.13
2018-09-14T08:00:11.556Z,100608.98
2018-09-14T08:02:40.047Z,100611.97
2018-09-14T08:05:08.807Z,100611.86
2018-09-14T08:07:38.354Z,100620.27
2018-09-14T08:10:08.526Z,100623.37
2018-09-14T08:12:37.217Z,100619.91
2018-09-14T08:15:06.444Z,100620.59
2018-09-14T08:20:09.094Z,100634.94
2018-09-14T08:22:37.452Z,100634.31
2018-09-14T08:25:05.527Z,100635.26
2018-09-14T08:27:35.091Z,100634.91
2018-09-14T08:30:04.158Z,100641.61
2018-09-14T08:32:33.979Z,100644.57
2018-09-14T08:35:02.265Z,100638.08
2018-09-14T08:37:30.398Z,100636.50
2018-09-14T08:39:58.496Z,100633.90
2018-09-14T08:42:26.586Z,100639.66
2018-09-14T08:44:54.794Z,100632.45
2018-09-14T08:47:24.043Z,100632.38
2018-09-14T08:49:52.419Z,100638.27
2018-09-14T08:52:20.498Z,100639.68
2018-09-14T08:54:48.716Z,100649.55
2018-09-14T08:57:16.895Z,100650.27
2018-09-14T08:59:45.621Z,100657.87
2018-09-14T09:02:13.703Z,100653.33
2018-09-14T09:04:42.065Z,100653.09
2018-09-14T09:07:11.481Z,100657.25
2018-09-14T09:09:39.751Z,100658.20
2018-09-14T09:12:08.115Z,100658.13
2018-09-14T09:14:36.202Z,100652.56
2018-09-14T09:17:04.554Z,100649.45
2018-09-14T09:19:34.011Z,100643.32
2018-09-14T09:22:03.154Z,100649.84
2018-09-14T09:24:31.400Z,100644.55
2018-09-14T09:26:59.522Z,100641.38
2018-09-14T09:29:27.901Z,100641.80
2018-09-14T09:31:59.486Z,100644.03
2018-09-14T09:34:28.160Z,100640.90
2018-09-14T09:36:56.456Z,100641.70
2018-09-14T09:39:25.379Z,100639.66
2018-09-14T09:41:55.468Z,100643.27
2018-09-14T09:44:25.399Z,100638.22
2018-09-14T09:46:53.607Z,100642.53
2018-09-14T09:49:21.790Z,100642.12
2018-09-14T09:51:50.261Z,100642.62
2018-09-14T09:54:19.445Z,100637.54
2018-09-14T09:56:47.633Z,100643.59
2018-09-14T09:59:15.760Z,100635.38
2018-09-14T10:01:50.234Z,100644.84
2018-09-14T10:04:25.535Z,100641.00
2018-09-14T10:06:56.330Z,100644.84
2018-09-14T10:09:26.334Z,100646.11
2018-09-14T10:11:54.482Z,100643.53
2018-09-14T10:14:23.295Z,100642.67
2018-09-14T10:16:52.687Z,100644.89
2018-09-14T10:19:21.851Z,100641.44
2018-09-14T10:21:50.000Z,100642.72
2018-09-14T10:24:18.084Z,100639.69
2018-09-14T10:26:46.195Z,100634.89
2018-09-14T10:29:14.535Z,100640.98
2018-09-14T10:31:42.670Z,100630.92
2018-09-14T10:34:11.065Z,100631.70
2018-09-14T10:36:39.167Z,100630.09
2018-09-14T10:39:09.274Z,100628.83
2018-09-14T10:41:37.486Z,100622.33
2018-09-14T10:44:05.672Z,100621.30
2018-09-14T10:46:35.311Z,100624.89
2018-09-14T10:49:04.093Z,100614.95
2018-09-14T10:51:32.499Z,100608.72
2018-09-14T10:54:00.762Z,100606.22
2018-09-14T10:56:29.140Z,100600.20
2018-09-14T10:58:57.369Z,100593.32
2018-09-14T11:01:25.486Z,100593.06
2018-09-14T11:03:54.303Z,100594.74
2018-09-14T11:06:34.888Z,100592.48
2018-09-14T11:09:15.576Z,100589.84
2018-09-14T11:11:43.860Z,100586.67
2018-09-14T11:14:12.132Z,100592.86
2018-09-14T11:16:40.306Z,100589.81
2018-09-14T11:19:10.541Z,100591.58
2018-09-14T11:21:38.789Z,100591.95
2018-09-14T11:24:07.102Z,100579.67
2018-09-14T11:26:35.409Z,100582.89
2018-09-14T11:29:04.818Z,100580.08
2018-09-14T11:31:33.478Z,100575.44
2018-09-14T11:34:01.591Z,100575.77
2018-09-14T11:36:30.219Z,100573.74
2018-09-14T11:38:58.346Z,100565.44
2018-09-14T11:41:27.736Z,100553.84
2018-09-14T11:43:56.030Z,100559.42
2018-09-14T11:46:24.804Z,100549.84
2018-09-14T11:48:54.406Z,100545.11
2018-09-14T11:51:22.612Z,100551.82
2018-09-14T11:53:50.691Z,100550.93
2018-09-14T11:56:18.805Z,100545.91
2018-09-14T11:58:49.128Z,100534.65
2018-09-14T12:01:19.875Z,100534.46
2018-09-14T12:03:49.867Z,100530.36
2018-09-14T12:06:18.307Z,100523.29
2018-09-14T12:08:46.811Z,100526.06
2018-09-14T12:11:17.994Z,100529.70
2018-09-14T12:13:46.393Z,100528.50
2018-09-14T12:16:14.805Z,100534.53
2018-09-14T12:18:43.543Z,100525.21
2018-09-14T12:21:12.081Z,100521.47
2018-09-14T12:23:40.670Z,100517.78
2018-09-14T12:26:09.135Z,100512.11
2018-09-14T12:28:37.531Z,100508.92
2018-09-14T12:31:06.243Z,100514.24
2018-09-14T12:33:36.603Z,100507.77
2018-09-14T12:36:06.160Z,100514.30
2018-09-14T12:38:37.017Z,100512.62
2018-09-14T12:41:05.896Z,100503.39
2018-09-14T12:43:35.137Z,100513.38
2018-09-14T12:46:03.424Z,100517.11
2018-09-14T12:48:31.837Z,100517.48
2018-09-14T12:50:59.920Z,100520.22
2018-09-14T12:53:28.800Z,100514.47
2018-09-14T12:55:57.237Z,100521.82
2018-09-14T12:58:25.490Z,100524.98
2018-09-14T13:00:54.262Z,100525.88
2018-09-14T13:03:24.065Z,100521.98
2018-09-14T13:05:52.398Z,100526.41
2018-09-14T13:08:20.512Z,100524.34
2018-09-14T13:10:48.970Z,100521.87
2018-09-14T13:13:17.608Z,100527.69
2018-09-14T13:15:46.899Z,100525.94
2018-09-14T13:18:15.113Z,100520.33
2018-09-14T13:20:44.012Z,100521.09
2018-09-14T13:23:12.478Z,100512.81
2018-09-14T13:25:41.747Z,100510.44
2018-09-14T13:28:10.068Z,100511.30
2018-09-14T13:30:38.603Z,100508.36
2018-09-14T13:33:06.700Z,100495.20
2018-09-14T13:35:36.320Z,100493.57
2018-09-14T13:38:05.725Z,100492.09
2018-09-14T13:40:34.376Z,100480.48
2018-09-14T13:43:03.885Z,100477.90
2018-09-14T13:45:32.398Z,100475.09
2018-09-14T13:48:00.695Z,100475.91
2018-09-14T13:50:29.030Z,100480.92
2018-09-14T13:52:57.299Z,100477.39
2018-09-14T13:55:26.105Z,100481.37
2018-09-14T13:57:54.534Z,100482.43
2018-09-14T14:00:25.069Z,100481.06
2018-09-14T14:02:53.195Z,100486.91
2018-09-14T14:05:21.804Z,100486.05
2018-09-14T14:07:49.991Z,100483.19
2018-09-14T14:10:18.147Z,100486.00
2018-09-14T14:12:46.406Z,100484.11
2018-09-14T14:15:14.596Z,100467.93
2018-09-14T14:17:43.989Z,100466.52
2018-09-14T14:20:12.153Z,100462.12
2018-09-14T14:22:40.338Z,100462.56
2018-09-14T14:25:09.830Z,100459.84
2018-09-14T14:27:38.360Z,100422.21
2018-09-14T14:30:06.560Z,100421.11
2018-09-14T14:32:35.676Z,100424.50
2018-09-14T14:35:03.908Z,100417.13
2018-09-14T14:37:32.762Z,100435.06
2018-09-14T14:40:01.058Z,100440.86
2018-09-14T14:42:29.234Z,100442.48
2018-09-14T14:44:57.580Z,100437.99
2018-09-14T14:47:25.743Z,100434.77
2018-09-14T14:49:53.994Z,100436.55
2018-09-14T14:52:22.466Z,100417.59
2018-09-14T14:54:50.975Z,100422.59
2018-09-14T14:57:19.194Z,100406.27
2018-09-14T14:59:47.586Z,100395.02
2018-09-14T15:02:15.951Z,100405.66
2018-09-14T15:04:44.097Z,100390.77
2018-09-14T15:07:12.278Z,100390.25
2018-09-14T15:09:40.442Z,100406.05
2018-09-14T15:12:08.630Z,100386.77
2018-09-14T15:14:36.972Z,100391.81
2018-09-14T15:17:06.487Z,100390.80
2018-09-14T15:19:35.113Z,100377.45
2018-09-14T15:22:04.378Z,100386.77
2018-09-14T15:24:33.178Z,100373.59
2018-09-14T15:27:01.389Z,100375.46
2018-09-14T15:29:29.960Z,100377.93
2018-09-14T15:31:59.179Z,100373.77
2018-09-14T15:34:27.286Z,100384.28
2018-09-14T15:36:55.558Z,100388.40
2018-09-14T15:39:25.450Z,100402.23
2018-09-14T15:41:53.718Z,100405.27
2018-09-14T15:44:22.021Z,100412.59
2018-09-14T15:46:52.273Z,100412.48
2018-09-14T15:49:21.468Z,100406.05
2018-09-14T15:51:50.868Z,100405.97
2018-09-14T15:54:19.067Z,100412.06
2018-09-14T15:56:47.344Z,100412.75
2018-09-14T15:59:15.593Z,100414.47
2018-09-14T16:01:43.685Z,100419.09
2018-09-14T16:04:13.453Z,100417.39
2018-09-14T16:06:42.352Z,100414.27
2018-09-14T16:09:11.562Z,100414.72
2018-09-14T16:11:39.929Z,100418.92
2018-09-14T16:14:08.900Z,100426.47
2018-09-14T16:16:38.831Z,100423.37
2018-09-14T16:19:10.208Z,100431.58
2018-09-14T16:21:38.858Z,100425.55
2018-09-14T16:24:07.595Z,100421.27
2018-09-14T16:26:36.090Z,100429.51
2018-09-14T16:29:05.565Z,100425.70
2018-09-14T16:31:34.906Z,100425.09
2018-09-14T16:34:03.534Z,100423.70
2018-09-14T16:36:32.585Z,100424.38
2018-09-14T16:39:02.084Z,100426.00
2018-09-14T16:41:30.269Z,100429.77
2018-09-14T16:43:58.511Z,100434.76
2018-09-14T16:46:28.017Z,100433.92
2018-09-14T16:48:56.351Z,100438.72
2018-09-14T16:51:27.530Z,100441.22
2018-09-14T16:53:55.690Z,100440.49
2018-09-14T16:56:24.726Z,100442.57
2018-09-14T16:58:55.821Z,100449.16
2018-09-14T17:01:23.935Z,100444.80
2018-09-14T17:03:53.227Z,100443.16
2018-09-14T17:06:21.527Z,100450.56
2018-09-14T17:08:49.958Z,100447.05
2018-09-14T17:11:18.275Z,100450.15
2018-09-14T17:13:46.472Z,100450.98
2018-09-14T17:16:14.892Z,100446.30
2018-09-14T17:18:45.800Z,100445.90
2018-09-14T17:21:13.878Z,100450.28
2018-09-14T17:23:42.158Z,100447.61
2018-09-14T17:26:11.261Z,100449.84
2018-09-14T17:28:39.562Z,100444.64
2018-09-14T17:31:08.267Z,100445.94
2018-09-14T17:33:38.112Z,100456.78
2018-09-14T17:36:06.540Z,100449.45
2018-09-14T17:38:38.361Z,100454.24
2018-09-14T17:41:08.869Z,100450.75
2018-09-14T17:43:37.348Z,100459.38
2018-09-14T17:46:05.639Z,100458.53
2018-09-14T17:48:34.544Z,100455.98
2018-09-14T17:51:04.069Z,100459.91
2018-09-14T17:53:33.215Z,100455.56
2018-09-14T17:56:01.469Z,100461.20
2018-09-14T17:58:36.099Z,100461.18
2018-09-14T18:01:06.944Z,100453.38
2018-09-14T18:03:35.053Z,100454.27
2018-09-14T18:06:03.759Z,100454.67
2018-09-14T18:08:32.076Z,100455.58
2018-09-14T18:11:00.499Z,100460.78
2018-09-14T18:13:28.706Z,100462.52
2018-09-14T18:15:57.509Z,100463.39
2018-09-14T18:18:26.234Z,100471.59
2018-09-14T18:20:54.373Z,100469.86
2018-09-14T18:23:23.511Z,100473.77
2018-09-14T18:25:51.626Z,100480.71
2018-09-14T18:28:21.847Z,100477.67
2018-09-14T18:30:50.322Z,100482.45
2018-09-14T18:33:18.512Z,100480.72
2018-09-14T18:35:47.400Z,100484.61
2018-09-14T18:38:16.062Z,100487.64
2018-09-14T18:40:44.204Z,100493.67
2018-09-14T18:43:13.707Z,100493.69
2018-09-14T18:45:41.800Z,100501.06
2018-09-14T18:48:09.928Z,100497.99
2018-09-14T18:50:38.068Z,100499.73
2018-09-14T18:53:07.430Z,100498.44
2018-09-14T18:55:37.356Z,100503.22
2018-09-14T18:58:08.270Z,100499.24
2018-09-14T19:05:29.493Z,100511.33
2018-09-14T19:07:57.935Z,100514.36
2018-09-14T19:10:26.208Z,100512.64
2018-09-14T19:12:55.751Z,100512.62
2018-09-14T19:15:25.114Z,100508.30
2018-09-14T19:17:53.243Z,100511.77
2018-09-14T19:20:21.408Z,100509.59
2018-09-14T19:22:50.661Z,100517.78
2018-09-14T19:25:20.057Z,100511.30
2018-09-14T19:27:49.494Z,100522.59
2018-09-14T19:30:17.710Z,100525.17
2018-09-14T19:32:46.316Z,100533.39
2018-09-14T19:35:14.818Z,100532.05
2018-09-14T19:37:42.975Z,100526.82
2018-09-14T19:40:11.161Z,100526.39
2018-09-14T19:42:39.401Z,100526.82
2018-09-14T19:45:07.551Z,100530.25
2018-09-14T19:47:36.138Z,100527.25
2018-09-14T19:50:04.499Z,100527.70
2018-09-14T19:52:32.562Z,100530.73
2018-09-14T19:55:00.723Z,100531.14
2018-09-14T19:57:29.756Z,100527.25
2018-09-14T19:59:58.176Z,100526.38
2018-09-14T20:02:27.737Z,100531.13
2018-09-14T20:04:55.921Z,100529.35
2018-09-14T20:07:24.106Z,100530.61
2018-09-14T20:09:52.256Z,100543.42
2018-09-14T20:12:20.522Z,100543.02
2018-09-14T20:14:48.803Z,100547.77
2018-09-14T20:17:16.925Z,100549.42
2018-09-14T20:19:45.742Z,100544.75
2018-09-14T20:22:14.031Z,100548.23
2018-09-14T20:24:43.881Z,100546.47
2018-09-14T20:27:12.088Z,100540.89
2018-09-14T20:29:40.470Z,100542.56
2018-09-14T20:32:08.782Z,100541.24
2018-09-14T20:34:37.666Z,100539.52
2018-09-14T20:37:06.059Z,100541.57
2018-09-14T20:39:34.170Z,100543.71
2018-09-14T20:42:02.347Z,100541.57
2018-09-14T20:44:30.618Z,100537.74
2018-09-14T20:46:59.186Z,100539.44
2018-09-14T20:49:27.447Z,100535.05
2018-09-14T20:51:55.617Z,100536.39
2018-09-14T20:54:23.710Z,100540.58
2018-09-14T20:56:51.899Z,100547.17
2018-09-14T20:59:22.573Z,100544.24
2018-09-14T21:01:50.793Z,100543.70
2018-09-14T21:04:18.992Z,100547.62
2018-09-14T21:06:48.443Z,100547.72
2018-09-14T21:09:16.639Z,100540.27
2018-09-14T21:11:44.855Z,100543.81
2018-09-14T21:14:12.992Z,100548.50
2018-09-14T21:16:41.208Z,100552.83
2018-09-14T21:19:09.323Z,100554.97
2018-09-14T21:21:39.656Z,100554.89
2018-09-14T21:24:07.969Z,100560.91
2018-09-14T21:26:36.856Z,100566.13
2018-09-14T21:29:06.093Z,100569.08
2018-09-14T21:31:34.554Z,100568.09
2018-09-14T21:34:02.752Z,100569.37
2018-09-14T21:36:30.924Z,100572.85
2018-09-14T21:38:59.983Z,100575.34
2018-09-14T21:41:28.895Z,100574.82
2018-09-14T21:43:57.109Z,100582.63
2018-09-14T21:46:25.237Z,100597.29
2018-09-14T21:48:59.817Z,100586.30
2018-09-14T21:51:27.970Z,100596.50
2018-09-14T21:53:56.398Z,100605.92
2018-09-14T21:56:24.500Z,100606.83
2018-09-14T21:58:52.700Z,100607.64
2018-09-14T22:01:23.691Z,100606.64
2018-09-14T22:03:51.830Z,100611.02
2018-09-14T22:06:24.481Z,100604.80
2018-09-14T22:08:52.786Z,100606.70
2018-09-14T22:11:20.906Z,100608.73
2018-09-14T22:13:49.713Z,100607.00
2018-09-14T22:16:18.302Z,100614.55
2018-09-14T22:18:46.666Z,100616.08
2018-09-14T22:21:15.033Z,100611.92
2018-09-14T22:23:43.307Z,100620.16
2018-09-14T22:26:11.395Z,100625.97
2018-09-14T22:28:39.638Z,100626.22
2018-09-14T22:31:08.914Z,100617.83
2018-09-14T22:33:38.026Z,100619.53
2018-09-14T22:36:06.139Z,100620.83
2018-09-14T22:38:34.352Z,100626.43
2018-09-14T22:41:02.728Z,100632.25
2018-09-14T22:43:31.783Z,100633.75
2018-09-14T22:45:59.914Z,100634.91
2018-09-14T22:48:28.053Z,100634.98
2018-09-14T22:50:56.182Z,100644.28
2018-09-14T22:53:24.715Z,100642.45
2018-09-14T22:55:52.864Z,100644.20
2018-09-14T22:58:21.290Z,100638.59
2018-09-14T23:00:56.475Z,100637.87
2018-09-14T23:03:24.564Z,100644.25
2018-09-14T23:05:52.727Z,100647.70
2018-09-14T23:08:20.843Z,100653.45
2018-09-14T23:10:48.998Z,100654.50
2018-09-14T23:15:58.284Z,100649.55
2018-09-14T23:18:27.392Z,100654.05
2018-09-14T23:20:55.621Z,100655.21
2018-09-14T23:23:24.649Z,100646.41
2018-09-14T23:25:54.582Z,100647.83
2018-09-14T23:28:22.712Z,100653.92
2018-09-14T23:31:01.327Z,100650.17
2018-09-14T23:33:31.050Z,100654.45
2018-09-14T23:35:59.223Z,100657.80
2018-09-14T23:38:27.384Z,100666.65
2018-09-14T23:40:55.488Z,100670.73
2018-09-14T23:43:23.599Z,100675.43
2018-09-14T23:45:52.281Z,100680.03
2018-09-14T23:48:20.513Z,100682.64
2018-09-14T23:50:48.607Z,100686.91
2018-09-14T23:53:17.171Z,100682.47
2018-09-14T23:55:45.318Z,100683.34
2018-09-14T23:58:13.651Z,100686.20
